createdAt,value
2022-12-14T00:00:49.193Z,72.38
2022-12-14T00:01:49.690Z,72.28
2022-12-14T00:02:49.235Z,72.73
2022-12-14T00:03:49.180Z,73.01
2022-12-14T00:04:49.129Z,72.59
2022-12-14T00:05:49.087Z,72.80
2022-12-14T00:06:49.088Z,72.94
2022-12-14T00:07:49.079Z,72.94
2022-12-14T00:08:49.068Z,72.73
2022-12-14T00:09:49.061Z,73.15
2022-12-14T00:10:49.063Z,72.73
2022-12-14T00:11:49.035Z,73.04
2022-12-14T00:12:49.014Z,73.25
2022-12-14T00:13:49.191Z,73.15
2022-12-14T00:14:49.032Z,72.83
2022-12-14T00:15:49.011Z,73.36
2022-12-14T00:16:48.971Z,73.15
2022-12-14T00:17:48.971Z,73.36
2022-12-14T00:18:48.957Z,73.01
2022-12-14T00:19:49.009Z,73.15
2022-12-14T00:20:48.950Z,73.15
2022-12-14T00:21:48.939Z,72.83
2022-12-14T00:22:48.911Z,72.83
2022-12-14T00:23:48.909Z,72.94
2022-12-14T00:24:48.927Z,72.94
2022-12-14T00:25:49.157Z,72.80
2022-12-14T00:26:48.867Z,73.36
2022-12-14T00:27:48.854Z,73.01
2022-12-14T00:28:48.855Z,73.11
2022-12-14T00:29:48.920Z,72.91
2022-12-14T00:30:51.794Z,73.01
2022-12-14T00:31:49.848Z,72.91
2022-12-14T00:32:48.820Z,73.04
2022-12-14T00:33:48.810Z,73.11
2022-12-14T00:34:48.794Z,73.04
2022-12-14T00:35:48.782Z,73.22
2022-12-14T00:36:48.774Z,73.43
2022-12-14T00:37:49.047Z,72.91
2022-12-14T00:38:48.748Z,72.80
2022-12-14T00:39:48.763Z,73.22
2022-12-14T00:40:48.725Z,73.11
2022-12-14T00:41:48.713Z,73.01
2022-12-14T00:42:48.713Z,72.91
2022-12-14T00:43:49.436Z,72.80
2022-12-14T00:44:48.684Z,73.04
2022-12-14T00:45:48.720Z,72.69
2022-12-14T00:46:48.757Z,72.91
2022-12-14T00:47:48.651Z,72.59
2022-12-14T00:48:48.638Z,72.69
2022-12-14T00:49:48.799Z,73.01
2022-12-14T00:50:49.001Z,72.91
2022-12-14T00:51:48.610Z,72.80
2022-12-14T00:52:48.598Z,73.11
2022-12-14T00:53:48.597Z,72.91
2022-12-14T00:54:48.583Z,73.11
2022-12-14T00:55:49.299Z,73.01
2022-12-14T00:56:48.564Z,72.69
2022-12-14T00:57:48.546Z,72.91
2022-12-14T00:58:48.548Z,73.15
2022-12-14T00:59:48.568Z,72.59
2022-12-14T01:00:48.518Z,72.94
2022-12-14T01:01:49.027Z,72.69
2022-12-14T01:02:48.581Z,72.73
2022-12-14T01:03:48.563Z,72.73
2022-12-14T01:04:48.480Z,72.83
2022-12-14T01:05:49.271Z,73.04
2022-12-14T01:06:48.448Z,72.63
2022-12-14T01:07:48.809Z,73.04
2022-12-14T01:08:48.431Z,72.83
2022-12-14T01:09:48.434Z,72.83
2022-12-14T01:10:48.409Z,73.15
2022-12-14T01:11:48.419Z,73.15
2022-12-14T01:12:48.397Z,72.73
2022-12-14T01:13:49.731Z,73.15
2022-12-14T01:14:48.382Z,72.83
2022-12-14T01:15:48.453Z,73.36
2022-12-14T01:16:48.360Z,73.36
2022-12-14T01:17:48.344Z,73.57
2022-12-14T01:18:48.356Z,73.36
2022-12-14T01:19:49.295Z,73.04
2022-12-14T01:20:48.344Z,73.01
2022-12-14T01:21:48.294Z,72.94
2022-12-14T01:22:48.288Z,73.15
2022-12-14T01:23:48.294Z,72.94
2022-12-14T01:24:48.285Z,72.66
2022-12-14T01:25:48.932Z,73.08
2022-12-14T01:26:48.252Z,72.86
2022-12-14T01:27:48.233Z,72.76
2022-12-14T01:28:48.224Z,73.18
2022-12-14T01:29:48.222Z,73.08
2022-12-14T01:30:48.259Z,73.00
2022-12-14T01:31:48.543Z,73.95
2022-12-14T01:32:48.199Z,73.85
2022-12-14T01:33:48.176Z,73.95
2022-12-14T01:34:48.223Z,73.95
2022-12-14T01:35:48.148Z,73.63
2022-12-14T01:36:48.140Z,73.85
2022-12-14T01:37:48.999Z,73.85
2022-12-14T01:38:48.161Z,74.02
2022-12-14T01:39:48.113Z,73.85
2022-12-14T01:40:48.113Z,73.95
2022-12-14T01:41:48.096Z,73.74
2022-12-14T01:42:48.087Z,74.05
2022-12-14T01:43:48.964Z,73.95
2022-12-14T01:44:48.065Z,73.92
2022-12-14T01:45:48.061Z,74.13
2022-12-14T01:46:48.140Z,74.23
2022-12-14T01:47:48.025Z,74.05
2022-12-14T01:48:48.016Z,73.60
2022-12-14T01:49:48.002Z,73.63
2022-12-14T01:50:48.027Z,73.18
2022-12-14T01:51:47.991Z,73.28
2022-12-14T01:52:47.993Z,73.28
2022-12-14T01:53:47.997Z,73.18
2022-12-14T01:54:48.850Z,73.08
2022-12-14T01:55:49.120Z,73.11
2022-12-14T01:56:47.944Z,72.97
2022-12-14T01:57:47.944Z,73.32
2022-12-14T01:58:47.912Z,73.18
2022-12-14T01:59:47.910Z,73.22
2022-12-14T02:00:47.888Z,73.11
2022-12-14T02:01:48.286Z,73.63
2022-12-14T02:02:48.057Z,73.74
2022-12-14T02:03:47.993Z,73.74
2022-12-14T02:04:47.848Z,73.74
2022-12-14T02:05:47.866Z,73.43
2022-12-14T02:06:47.854Z,73.11
2022-12-14T02:07:48.940Z,73.11
2022-12-14T02:08:47.819Z,73.11
2022-12-14T02:09:47.804Z,72.69
2022-12-14T02:10:47.793Z,73.14
2022-12-14T02:11:47.774Z,72.93
2022-12-14T02:12:47.765Z,73.14
2022-12-14T02:13:48.976Z,74.02
2022-12-14T02:14:47.753Z,73.99
2022-12-14T02:15:47.766Z,73.99
2022-12-14T02:16:47.732Z,73.99
2022-12-14T02:17:47.721Z,73.77
2022-12-14T02:18:47.724Z,74.09
2022-12-14T02:19:47.726Z,74.30
2022-12-14T02:20:47.681Z,73.67
2022-12-14T02:21:47.679Z,73.77
2022-12-14T02:22:47.681Z,73.67
2022-12-14T02:23:47.657Z,74.44
2022-12-14T02:24:47.642Z,73.91
2022-12-14T02:25:49.463Z,73.81
2022-12-14T02:26:47.620Z,73.91
2022-12-14T02:27:47.620Z,73.88
2022-12-14T02:28:47.633Z,74.22
2022-12-14T02:29:47.641Z,73.99
2022-12-14T02:30:47.576Z,74.19
2022-12-14T02:31:48.947Z,74.19
2022-12-14T02:32:47.558Z,73.88
2022-12-14T02:33:47.546Z,73.14
2022-12-14T02:34:47.554Z,72.97
2022-12-14T02:35:47.527Z,73.39
2022-12-14T02:36:47.530Z,73.60
2022-12-14T02:37:49.228Z,73.91
2022-12-14T02:38:47.528Z,74.16
2022-12-14T02:39:47.497Z,73.94
2022-12-14T02:40:47.484Z,73.74
2022-12-14T02:41:47.476Z,74.47
2022-12-14T02:42:47.450Z,73.84
2022-12-14T02:43:47.536Z,73.94
2022-12-14T02:44:47.438Z,74.47
2022-12-14T02:45:47.422Z,74.58
2022-12-14T02:46:50.357Z,73.98
2022-12-14T02:47:47.400Z,74.51
2022-12-14T02:48:47.396Z,74.40
2022-12-14T02:49:49.252Z,74.51
2022-12-14T02:50:47.374Z,74.89
2022-12-14T02:51:47.389Z,75.00
2022-12-14T02:52:47.393Z,75.13
2022-12-14T02:53:47.348Z,75.00
2022-12-14T02:54:47.355Z,74.47
2022-12-14T02:55:47.317Z,74.47
2022-12-14T02:56:47.314Z,74.16
2022-12-14T02:57:47.304Z,74.05
2022-12-14T02:58:47.308Z,74.05
2022-12-14T02:59:47.274Z,73.94
2022-12-14T03:00:47.295Z,74.26
2022-12-14T03:01:47.555Z,73.63
2022-12-14T03:02:47.341Z,74.16
2022-12-14T03:03:47.252Z,73.94
2022-12-14T03:04:47.229Z,74.26
2022-12-14T03:05:47.227Z,73.94
2022-12-14T03:06:47.209Z,74.05
2022-12-14T03:07:48.912Z,73.94
2022-12-14T03:08:47.196Z,73.94
2022-12-14T03:09:47.175Z,73.94
2022-12-14T03:10:47.183Z,74.58
2022-12-14T03:11:47.152Z,73.94
2022-12-14T03:12:47.145Z,73.52
2022-12-14T03:13:47.150Z,73.84
2022-12-14T03:14:47.128Z,73.60
2022-12-14T03:15:47.111Z,73.42
2022-12-14T03:16:47.110Z,72.97
2022-12-14T03:17:49.055Z,72.86
2022-12-14T03:18:47.103Z,73.18
2022-12-14T03:19:47.088Z,73.28
2022-12-14T03:20:47.080Z,73.28
2022-12-14T03:21:47.052Z,72.86
2022-12-14T03:22:47.034Z,73.07
2022-12-14T03:23:47.026Z,73.07
2022-12-14T03:24:47.027Z,73.04
2022-12-14T03:25:47.024Z,73.07
2022-12-14T03:26:47.720Z,72.86
2022-12-14T03:27:47.006Z,72.86
2022-12-14T03:28:46.988Z,72.75
2022-12-14T03:29:46.974Z,72.86
2022-12-14T03:31:00.976Z,72.75
2022-12-14T03:31:48.994Z,72.75
2022-12-14T03:32:46.933Z,72.75
2022-12-14T03:33:46.930Z,72.65
2022-12-14T03:34:46.922Z,72.65
2022-12-14T03:35:46.915Z,72.97
2022-12-14T03:36:47.348Z,72.97
2022-12-14T03:37:52.810Z,72.89
2022-12-14T03:38:47.875Z,72.79
2022-12-14T03:39:46.861Z,73.00
2022-12-14T03:40:46.852Z,73.21
2022-12-14T03:41:49.060Z,73.00
2022-12-14T03:42:49.405Z,73.21
2022-12-14T03:43:49.891Z,73.00
2022-12-14T03:44:49.466Z,72.89
2022-12-14T03:45:46.862Z,73.10
2022-12-14T03:46:46.799Z,73.21
2022-12-14T03:47:46.797Z,73.32
2022-12-14T03:48:46.767Z,73.32
2022-12-14T03:49:46.758Z,73.10
2022-12-14T03:50:46.748Z,73.10
2022-12-14T03:51:46.746Z,73.10
2022-12-14T03:52:46.753Z,73.21
2022-12-14T03:53:46.725Z,73.21
2022-12-14T03:54:46.716Z,73.00
2022-12-14T03:55:46.700Z,73.10
2022-12-14T03:56:52.622Z,73.07
2022-12-14T03:57:47.692Z,72.97
2022-12-14T03:58:47.246Z,72.86
2022-12-14T03:59:46.661Z,72.65
2022-12-14T04:00:46.723Z,72.79
2022-12-14T04:01:46.857Z,72.13
2022-12-14T04:02:46.809Z,72.23
2022-12-14T04:03:46.626Z,72.16
2022-12-14T04:04:46.625Z,72.58
2022-12-14T04:05:49.077Z,72.27
2022-12-14T04:06:46.593Z,72.37
2022-12-14T04:07:46.570Z,72.47
2022-12-14T04:08:46.578Z,72.16
2022-12-14T04:09:46.557Z,72.37
2022-12-14T04:10:46.556Z,72.68
2022-12-14T04:11:46.527Z,72.79
2022-12-14T04:12:51.054Z,72.89
2022-12-14T04:13:49.033Z,73.00
2022-12-14T04:14:46.529Z,72.50
2022-12-14T04:15:46.503Z,72.54
2022-12-14T04:16:46.527Z,73.07
2022-12-14T04:17:46.474Z,73.28
2022-12-14T04:18:46.457Z,73.07
2022-12-14T04:19:49.306Z,73.07
2022-12-14T04:20:46.436Z,73.70
2022-12-14T04:21:46.438Z,73.07
2022-12-14T04:22:46.417Z,73.70
2022-12-14T04:23:46.415Z,74.22
2022-12-14T04:24:46.405Z,73.80
2022-12-14T04:25:46.386Z,74.08
2022-12-14T04:26:46.380Z,73.98
2022-12-14T04:27:46.384Z,73.70
2022-12-14T04:28:46.367Z,73.17
2022-12-14T04:29:47.524Z,73.24
2022-12-14T04:30:46.385Z,73.49
2022-12-14T04:31:46.407Z,73.24
2022-12-14T04:32:46.421Z,72.92
2022-12-14T04:33:46.310Z,73.56
2022-12-14T04:34:46.296Z,73.35
2022-12-14T04:35:46.327Z,72.82
2022-12-14T04:36:46.281Z,73.03
2022-12-14T04:37:46.269Z,73.24
2022-12-14T04:38:46.257Z,73.24
2022-12-14T04:39:46.238Z,73.03
2022-12-14T04:40:46.238Z,73.14
2022-12-14T04:41:46.231Z,73.03
2022-12-14T04:42:46.218Z,73.24
2022-12-14T04:43:46.205Z,73.14
2022-12-14T04:44:46.187Z,73.14
2022-12-14T04:45:46.222Z,73.14
2022-12-14T04:46:46.207Z,73.24
2022-12-14T04:47:46.166Z,73.35
2022-12-14T04:48:46.153Z,73.00
2022-12-14T04:49:46.135Z,72.82
2022-12-14T04:50:46.131Z,72.82
2022-12-14T04:51:46.133Z,72.82
2022-12-14T04:52:46.110Z,73.24
2022-12-14T04:53:46.105Z,73.24
2022-12-14T04:54:46.089Z,73.03
2022-12-14T04:55:46.077Z,73.24
2022-12-14T04:56:46.077Z,73.46
2022-12-14T04:57:46.058Z,73.56
2022-12-14T04:58:46.039Z,73.03
2022-12-14T04:59:46.035Z,73.03
2022-12-14T05:00:46.119Z,73.24
2022-12-14T05:01:49.110Z,73.03
2022-12-14T05:02:46.123Z,72.72
2022-12-14T05:03:46.007Z,72.61
2022-12-14T05:04:45.987Z,73.03
2022-12-14T05:05:45.969Z,73.03
2022-12-14T05:06:45.963Z,72.92
2022-12-14T05:07:45.947Z,73.14
2022-12-14T05:08:45.941Z,72.82
2022-12-14T05:09:45.974Z,72.82
2022-12-14T05:10:45.928Z,72.92
2022-12-14T05:11:54.600Z,73.14
2022-12-14T05:12:46.909Z,73.24
2022-12-14T05:13:45.894Z,72.82
2022-12-14T05:14:45.872Z,73.14
2022-12-14T05:15:45.874Z,72.82
2022-12-14T05:16:48.956Z,72.92
2022-12-14T05:17:45.864Z,72.33
2022-12-14T05:18:45.860Z,72.72
2022-12-14T05:19:48.896Z,72.96
2022-12-14T05:20:45.816Z,72.89
2022-12-14T05:21:45.824Z,73.17
2022-12-14T05:22:45.794Z,73.73
2022-12-14T05:23:45.780Z,73.10
2022-12-14T05:24:45.783Z,73.45
2022-12-14T05:25:45.767Z,74.01
2022-12-14T05:26:45.763Z,74.54
2022-12-14T05:27:45.754Z,74.96
2022-12-14T05:28:50.261Z,75.48
2022-12-14T05:29:45.727Z,75.66
2022-12-14T05:30:48.768Z,75.34
2022-12-14T05:31:49.627Z,74.71
2022-12-14T05:32:45.708Z,74.08
2022-12-14T05:33:45.685Z,74.50
2022-12-14T05:34:45.696Z,74.05
2022-12-14T05:35:45.655Z,74.05
2022-12-14T05:36:45.665Z,74.26
2022-12-14T05:37:45.638Z,73.94
2022-12-14T05:38:45.622Z,73.73
2022-12-14T05:39:45.617Z,73.31
2022-12-14T05:40:45.608Z,73.52
2022-12-14T05:41:45.609Z,73.48
2022-12-14T05:42:48.765Z,73.06
2022-12-14T05:43:46.574Z,74.43
2022-12-14T05:44:45.591Z,74.54
2022-12-14T05:45:45.633Z,73.80
2022-12-14T05:46:45.554Z,74.15
2022-12-14T05:47:45.572Z,74.81
2022-12-14T05:48:49.145Z,74.60
2022-12-14T05:49:45.518Z,75.87
2022-12-14T05:50:45.519Z,75.66
2022-12-14T05:51:45.489Z,75.98
2022-12-14T05:52:45.511Z,76.08
2022-12-14T05:53:45.473Z,76.08
2022-12-14T05:54:45.456Z,76.50
2022-12-14T05:55:45.446Z,76.89
2022-12-14T05:56:45.435Z,76.57
2022-12-14T05:57:45.435Z,76.57
2022-12-14T05:58:45.456Z,75.73
2022-12-14T05:59:45.412Z,75.90
2022-12-14T06:00:45.393Z,75.70
2022-12-14T06:01:45.453Z,74.85
2022-12-14T06:02:45.450Z,75.27
2022-12-14T06:03:45.430Z,75.06
2022-12-14T06:04:45.422Z,74.85
2022-12-14T06:05:45.343Z,75.16
2022-12-14T06:06:45.356Z,74.61
2022-12-14T06:07:45.322Z,74.29
2022-12-14T06:08:45.342Z,74.08
2022-12-14T06:09:45.301Z,73.97
2022-12-14T06:10:45.286Z,74.29
2022-12-14T06:11:45.282Z,73.80
2022-12-14T06:12:45.291Z,73.69
2022-12-14T06:13:45.277Z,74.22
2022-12-14T06:14:45.263Z,74.01
2022-12-14T06:15:45.302Z,74.54
2022-12-14T06:16:45.233Z,74.64
2022-12-14T06:17:45.226Z,74.96
2022-12-14T06:18:45.232Z,74.85
2022-12-14T06:19:49.798Z,74.50
2022-12-14T06:20:46.191Z,74.29
2022-12-14T06:21:45.176Z,73.97
2022-12-14T06:22:47.741Z,74.08
2022-12-14T06:23:45.152Z,74.08
2022-12-14T06:24:45.167Z,73.87
2022-12-14T06:25:45.143Z,73.80
2022-12-14T06:26:45.131Z,74.08
2022-12-14T06:27:45.125Z,74.43
2022-12-14T06:28:45.112Z,74.22
2022-12-14T06:29:45.114Z,74.32
2022-12-14T06:30:45.125Z,74.43
2022-12-14T06:31:45.086Z,74.43
2022-12-14T06:32:45.076Z,74.43
2022-12-14T06:33:45.060Z,74.71
2022-12-14T06:34:45.042Z,74.22
2022-12-14T06:35:45.025Z,74.01
2022-12-14T06:36:45.051Z,73.97
2022-12-14T06:37:45.015Z,73.97
2022-12-14T06:38:45.030Z,74.08
2022-12-14T06:39:46.474Z,74.08
2022-12-14T06:40:45.974Z,74.15
2022-12-14T06:41:44.992Z,73.87
2022-12-14T06:42:44.965Z,73.73
2022-12-14T06:43:44.949Z,73.41
2022-12-14T06:44:44.934Z,73.31
2022-12-14T06:45:44.931Z,73.41
2022-12-14T06:46:45.119Z,72.99
2022-12-14T06:47:44.906Z,73.34
2022-12-14T06:48:44.909Z,73.34
2022-12-14T06:49:44.887Z,73.34
2022-12-14T06:50:44.877Z,73.52
2022-12-14T06:51:44.867Z,73.52
2022-12-14T06:52:44.874Z,73.45
2022-12-14T06:53:44.865Z,73.21
2022-12-14T06:54:44.855Z,73.66
2022-12-14T06:55:44.825Z,73.55
2022-12-14T06:56:44.808Z,73.48
2022-12-14T06:57:44.814Z,73.90
2022-12-14T06:58:44.790Z,74.22
2022-12-14T06:59:44.791Z,74.22
2022-12-14T07:00:44.762Z,73.80
2022-12-14T07:01:44.898Z,74.43
2022-12-14T07:02:44.957Z,74.08
2022-12-14T07:03:44.788Z,74.19
2022-12-14T07:04:44.743Z,74.08
2022-12-14T07:05:48.966Z,74.37
2022-12-14T07:06:44.701Z,73.87
2022-12-14T07:07:44.700Z,73.97
2022-12-14T07:08:44.693Z,74.19
2022-12-14T07:09:44.689Z,73.66
2022-12-14T07:10:44.704Z,73.76
2022-12-14T07:11:44.658Z,74.19
2022-12-14T07:12:44.655Z,74.26
2022-12-14T07:13:44.651Z,73.94
2022-12-14T07:14:44.646Z,73.41
2022-12-14T07:15:44.663Z,73.21
2022-12-14T07:16:48.241Z,73.31
2022-12-14T07:17:44.590Z,73.21
2022-12-14T07:18:44.593Z,72.89
2022-12-14T07:19:44.651Z,73.41
2022-12-14T07:20:44.558Z,73.63
2022-12-14T07:21:44.554Z,73.21
2022-12-14T07:22:44.534Z,72.99
2022-12-14T07:23:44.525Z,73.31
2022-12-14T07:24:44.510Z,73.21
2022-12-14T07:25:44.522Z,72.92
2022-12-14T07:26:44.537Z,73.55
2022-12-14T07:27:44.545Z,73.16
2022-12-14T07:28:44.486Z,73.80
2022-12-14T07:29:44.470Z,74.22
2022-12-14T07:30:44.525Z,74.11
2022-12-14T07:31:44.474Z,74.61
2022-12-14T07:32:45.458Z,74.19
2022-12-14T07:33:44.435Z,74.08
2022-12-14T07:34:44.410Z,74.05
2022-12-14T07:35:44.425Z,74.47
2022-12-14T07:36:44.400Z,73.83
2022-12-14T07:37:49.113Z,73.41
2022-12-14T07:38:45.378Z,73.10
2022-12-14T07:39:44.364Z,73.31
2022-12-14T07:40:44.377Z,73.38
2022-12-14T07:41:44.336Z,73.49
2022-12-14T07:42:44.344Z,73.17
2022-12-14T07:43:44.325Z,73.28
2022-12-14T07:44:45.314Z,72.96
2022-12-14T07:45:44.299Z,73.38
2022-12-14T07:46:44.467Z,73.31
2022-12-14T07:47:44.284Z,73.10
2022-12-14T07:48:44.272Z,73.83
2022-12-14T07:49:44.267Z,74.47
2022-12-14T07:50:44.250Z,74.47
2022-12-14T07:51:44.337Z,74.12
2022-12-14T07:52:44.222Z,73.70
2022-12-14T07:53:44.219Z,73.14
2022-12-14T07:54:44.205Z,72.82
2022-12-14T07:55:44.212Z,72.82
2022-12-14T07:56:44.179Z,72.92
2022-12-14T07:57:44.174Z,73.35
2022-12-14T07:58:44.175Z,73.56
2022-12-14T07:59:44.193Z,73.00
2022-12-14T08:00:44.154Z,73.32
2022-12-14T08:01:44.462Z,73.00
2022-12-14T08:02:44.149Z,72.79
2022-12-14T08:03:44.116Z,72.75
2022-12-14T08:04:44.164Z,72.47
2022-12-14T08:05:44.109Z,72.47
2022-12-14T08:06:44.085Z,72.02
2022-12-14T08:07:44.073Z,71.50
2022-12-14T08:08:44.053Z,72.20
2022-12-14T08:09:44.045Z,71.98
2022-12-14T08:10:44.050Z,71.33
2022-12-14T08:11:44.024Z,70.56
2022-12-14T08:12:44.026Z,69.30
2022-12-14T08:13:44.002Z,69.86
2022-12-14T08:14:44.014Z,68.99
2022-12-14T08:15:44.041Z,68.47
2022-12-14T08:16:43.996Z,68.33
2022-12-14T08:17:43.968Z,67.71
2022-12-14T08:18:43.956Z,66.94
2022-12-14T08:19:43.950Z,66.70
2022-12-14T08:20:48.595Z,65.97
2022-12-14T08:21:43.952Z,65.55
2022-12-14T08:22:43.908Z,66.20
2022-12-14T08:23:43.901Z,65.50
2022-12-14T08:24:43.895Z,65.71
2022-12-14T08:25:44.883Z,66.13
2022-12-14T08:26:49.142Z,66.73
2022-12-14T08:27:44.866Z,66.17
2022-12-14T08:28:43.851Z,65.59
2022-12-14T08:29:43.841Z,64.90
2022-12-14T08:30:43.851Z,62.70
2022-12-14T08:31:43.881Z,60.82
2022-12-14T08:32:43.812Z,60.20
2022-12-14T08:33:43.804Z,59.80
2022-12-14T08:34:43.791Z,58.16
2022-12-14T08:35:43.785Z,57.28
2022-12-14T08:36:43.761Z,55.95
2022-12-14T08:37:47.490Z,54.32
2022-12-14T08:38:43.741Z,52.92
2022-12-14T08:39:43.739Z,51.54
2022-12-14T08:40:45.357Z,52.73
2022-12-14T08:41:43.741Z,53.46
2022-12-14T08:42:43.705Z,53.54
2022-12-14T08:43:43.692Z,53.44
2022-12-14T08:44:43.686Z,53.61
2022-12-14T08:45:43.675Z,53.17
2022-12-14T08:46:43.857Z,51.99
2022-12-14T08:47:43.665Z,51.76
2022-12-14T08:48:43.642Z,50.70
2022-12-14T08:49:43.644Z,50.08
2022-12-14T08:50:43.614Z,50.08
2022-12-14T08:51:43.615Z,49.98
2022-12-14T08:52:43.621Z,50.31
2022-12-14T08:53:43.600Z,50.43
2022-12-14T08:54:43.571Z,51.31
2022-12-14T08:55:43.704Z,51.42
2022-12-14T08:56:43.552Z,52.58
2022-12-14T08:57:43.537Z,52.25
2022-12-14T08:58:43.556Z,52.01
2022-12-14T09:00:04.461Z,51.37
2022-12-14T09:00:44.552Z,50.80
2022-12-14T09:01:43.773Z,50.39
2022-12-14T09:02:43.625Z,50.49
2022-12-14T09:03:43.500Z,50.31
2022-12-14T09:04:43.473Z,50.64
2022-12-14T09:05:43.452Z,50.85
2022-12-14T09:06:43.445Z,51.50
2022-12-14T09:07:43.437Z,52.87
2022-12-14T09:08:43.427Z,52.27
2022-12-14T09:09:43.432Z,53.23
2022-12-14T09:10:43.410Z,52.73
2022-12-14T09:11:43.421Z,53.49
2022-12-14T09:12:43.391Z,54.34
2022-12-14T09:13:43.376Z,55.07
2022-12-14T09:14:43.354Z,55.32
2022-12-14T09:15:43.343Z,55.19
2022-12-14T09:16:43.394Z,55.19
2022-12-14T09:17:43.378Z,55.40
2022-12-14T09:18:43.355Z,55.11
2022-12-14T09:19:43.305Z,56.29
2022-12-14T09:20:43.328Z,56.70
2022-12-14T09:21:43.313Z,57.15
2022-12-14T09:22:43.278Z,57.43
2022-12-14T09:23:43.273Z,56.91
2022-12-14T09:24:43.248Z,56.47
2022-12-14T09:25:43.253Z,56.47
2022-12-14T09:26:43.228Z,56.60
2022-12-14T09:27:43.224Z,56.83
2022-12-14T09:28:43.208Z,57.48
2022-12-14T09:29:52.390Z,57.17
2022-12-14T09:30:43.231Z,58.32
2022-12-14T09:31:43.213Z,57.07
2022-12-14T09:32:43.231Z,57.32
2022-12-14T09:33:44.161Z,56.57
2022-12-14T09:34:45.347Z,54.83
2022-12-14T09:35:43.140Z,55.10
2022-12-14T09:36:43.140Z,53.49
2022-12-14T09:37:44.464Z,52.53
2022-12-14T09:38:48.674Z,52.53
2022-12-14T09:39:44.111Z,53.12
2022-12-14T09:40:43.080Z,52.30
2022-12-14T09:41:43.070Z,52.09
2022-12-14T09:42:43.069Z,51.99
2022-12-14T09:43:44.073Z,51.34
2022-12-14T09:44:43.047Z,51.61
2022-12-14T09:45:43.071Z,50.21
2022-12-14T09:46:43.029Z,49.60
2022-12-14T09:47:43.024Z,49.85
2022-12-14T09:48:43.024Z,50.29
2022-12-14T09:49:42.992Z,50.95
2022-12-14T09:50:42.981Z,52.48
2022-12-14T09:51:42.978Z,53.46
2022-12-14T09:52:42.953Z,54.03
2022-12-14T09:53:42.969Z,55.51
2022-12-14T09:54:42.926Z,56.16
2022-12-14T09:55:42.937Z,56.70
2022-12-14T09:56:42.914Z,57.53
2022-12-14T09:57:42.898Z,57.15
2022-12-14T09:58:42.905Z,58.08
2022-12-14T09:59:42.884Z,57.56
2022-12-14T10:00:44.804Z,58.11
2022-12-14T10:01:55.485Z,58.76
2022-12-14T10:02:44.095Z,58.97
2022-12-14T10:03:43.055Z,59.80
2022-12-14T10:04:47.796Z,59.83
2022-12-14T10:05:43.818Z,60.14
2022-12-14T10:06:42.804Z,60.04
2022-12-14T10:07:42.792Z,60.35
2022-12-14T10:08:42.793Z,60.63
2022-12-14T10:09:42.783Z,60.22
2022-12-14T10:10:42.767Z,59.72
2022-12-14T10:11:42.762Z,60.11
2022-12-14T10:12:42.745Z,60.11
2022-12-14T10:13:42.738Z,60.66
2022-12-14T10:14:44.444Z,60.66
2022-12-14T10:15:42.763Z,60.56
2022-12-14T10:16:45.890Z,60.22
2022-12-14T10:17:43.681Z,60.46
2022-12-14T10:19:00.141Z,60.77
2022-12-14T10:19:43.671Z,61.08
2022-12-14T10:20:42.676Z,60.56
2022-12-14T10:21:42.660Z,60.97
2022-12-14T10:22:42.652Z,60.95
2022-12-14T10:23:42.661Z,60.63
2022-12-14T10:24:42.615Z,60.53
2022-12-14T10:25:42.643Z,60.63
2022-12-14T10:26:42.586Z,60.63
2022-12-14T10:28:16.513Z,60.63
2022-12-14T10:28:43.574Z,59.99
2022-12-14T10:29:42.581Z,60.19
2022-12-14T10:30:42.570Z,60.01
2022-12-14T10:31:42.601Z,60.01
2022-12-14T10:32:42.530Z,60.11
2022-12-14T10:33:42.553Z,60.22
2022-12-14T10:34:42.522Z,60.42
2022-12-14T10:35:42.521Z,60.77
2022-12-14T10:36:42.481Z,60.46
2022-12-14T10:37:42.490Z,61.18
2022-12-14T10:38:42.460Z,61.18
2022-12-14T10:39:42.459Z,61.47
2022-12-14T10:40:43.451Z,61.29
2022-12-14T10:41:43.441Z,61.16
2022-12-14T10:42:42.483Z,61.36
2022-12-14T10:43:43.422Z,61.05
2022-12-14T10:44:42.406Z,61.08
2022-12-14T10:45:43.559Z,61.18
2022-12-14T10:46:42.551Z,61.50
2022-12-14T10:47:42.433Z,62.02
2022-12-14T10:48:42.395Z,61.71
2022-12-14T10:49:42.376Z,61.60
2022-12-14T10:50:42.352Z,61.71
2022-12-14T10:51:42.351Z,61.60
2022-12-14T10:52:42.324Z,61.94
2022-12-14T10:53:42.310Z,62.26
2022-12-14T10:54:42.309Z,62.05
2022-12-14T10:55:42.283Z,61.97
2022-12-14T10:56:42.390Z,62.60
2022-12-14T10:57:42.281Z,62.81
2022-12-14T10:58:42.261Z,62.60
2022-12-14T10:59:50.777Z,63.01
2022-12-14T11:00:43.258Z,63.32
2022-12-14T11:01:42.373Z,63.22
2022-12-14T11:02:42.490Z,63.32
2022-12-14T11:03:42.411Z,63.12
2022-12-14T11:04:42.213Z,63.32
2022-12-14T11:05:42.181Z,63.04
2022-12-14T11:06:42.206Z,63.80
2022-12-14T11:07:42.255Z,64.43
2022-12-14T11:08:42.227Z,65.19
2022-12-14T11:09:42.194Z,65.84
2022-12-14T11:10:42.145Z,65.61
2022-12-14T11:11:42.202Z,66.03
2022-12-14T11:12:42.856Z,65.47
2022-12-14T11:13:42.142Z,65.97
2022-12-14T11:14:42.123Z,65.44
2022-12-14T11:15:42.122Z,65.13
2022-12-14T11:16:42.277Z,65.52
2022-12-14T11:17:42.262Z,65.41
2022-12-14T11:18:42.059Z,64.97
2022-12-14T11:19:42.043Z,64.34
2022-12-14T11:20:42.044Z,64.21
2022-12-14T11:21:42.020Z,63.48
2022-12-14T11:22:42.005Z,63.87
2022-12-14T11:23:42.022Z,63.34
2022-12-14T11:24:41.985Z,63.34
2022-12-14T11:25:41.981Z,63.13
2022-12-14T11:26:41.966Z,63.00
2022-12-14T11:27:41.957Z,62.59
2022-12-14T11:28:42.309Z,61.96
2022-12-14T11:29:41.948Z,62.07
2022-12-14T11:30:41.985Z,62.41
2022-12-14T11:31:41.930Z,62.38
2022-12-14T11:32:41.900Z,62.27
2022-12-14T11:33:41.935Z,62.14
2022-12-14T11:34:41.914Z,62.04
2022-12-14T11:35:41.872Z,62.04
2022-12-14T11:36:41.871Z,62.04
2022-12-14T11:37:41.897Z,61.93
2022-12-14T11:38:41.841Z,61.93
2022-12-14T11:39:41.851Z,61.52
2022-12-14T11:40:41.867Z,61.62
2022-12-14T11:41:41.848Z,61.65
2022-12-14T11:42:41.833Z,61.54
2022-12-14T11:43:41.795Z,62.19
2022-12-14T11:44:41.802Z,62.30
2022-12-14T11:45:41.850Z,62.09
2022-12-14T11:46:44.658Z,62.41
2022-12-14T11:47:41.771Z,62.51
2022-12-14T11:48:41.747Z,62.51
2022-12-14T11:49:41.740Z,63.03
2022-12-14T11:50:41.719Z,63.34
2022-12-14T11:51:41.728Z,63.55
2022-12-14T11:52:41.718Z,63.34
2022-12-14T11:53:41.707Z,63.58
2022-12-14T11:54:41.676Z,63.13
2022-12-14T11:55:41.664Z,63.13
2022-12-14T11:56:41.667Z,63.34
2022-12-14T11:57:41.641Z,63.03
2022-12-14T11:58:41.704Z,63.24
2022-12-14T11:59:41.661Z,62.93
2022-12-14T12:00:46.826Z,63.03
2022-12-14T12:01:42.676Z,62.82
2022-12-14T12:02:41.665Z,62.75
2022-12-14T12:03:41.674Z,62.43
2022-12-14T12:04:41.587Z,63.09
2022-12-14T12:05:41.563Z,63.71
2022-12-14T12:06:41.568Z,64.69
2022-12-14T12:07:41.563Z,64.79
2022-12-14T12:08:41.524Z,64.89
2022-12-14T12:09:41.543Z,65.07
2022-12-14T12:10:41.525Z,64.76
2022-12-14T12:11:41.483Z,64.86
2022-12-14T12:12:41.484Z,64.86
2022-12-14T12:13:41.481Z,65.04
2022-12-14T12:14:41.454Z,64.94
2022-12-14T12:15:41.602Z,64.94
2022-12-14T12:16:41.460Z,64.34
2022-12-14T12:17:41.466Z,65.00
2022-12-14T12:18:46.144Z,65.10
2022-12-14T12:19:41.424Z,65.38
2022-12-14T12:20:41.406Z,65.48
2022-12-14T12:21:41.420Z,65.80
2022-12-14T12:22:41.378Z,65.28
2022-12-14T12:23:41.370Z,65.14
2022-12-14T12:25:01.149Z,64.94
2022-12-14T12:25:42.341Z,65.35
2022-12-14T12:26:41.329Z,65.04
2022-12-14T12:27:41.337Z,64.94
2022-12-14T12:28:41.324Z,64.86
2022-12-14T12:29:41.304Z,65.17
2022-12-14T12:30:41.342Z,65.91
2022-12-14T12:31:41.335Z,65.48
2022-12-14T12:32:41.272Z,64.97
2022-12-14T12:33:41.271Z,65.52
2022-12-14T12:34:41.243Z,65.41
2022-12-14T12:35:41.240Z,65.62
2022-12-14T12:36:56.864Z,65.62
2022-12-14T12:37:42.225Z,66.46
2022-12-14T12:38:41.209Z,66.01
2022-12-14T12:39:41.198Z,66.01
2022-12-14T12:40:41.203Z,65.70
2022-12-14T12:41:41.264Z,66.01
2022-12-14T12:42:41.164Z,65.07
2022-12-14T12:43:41.164Z,65.17
2022-12-14T12:44:41.154Z,65.94
2022-12-14T12:45:41.260Z,65.62
2022-12-14T12:47:06.883Z,65.94
2022-12-14T12:47:47.569Z,65.62
2022-12-14T12:48:42.101Z,66.35
2022-12-14T12:49:41.085Z,66.35
2022-12-14T12:50:41.132Z,66.66
2022-12-14T12:51:41.079Z,66.77
2022-12-14T12:52:41.069Z,66.46